Knoxville, TN (37998)

1:57 PM EDT on July 30, 2016 (GMT -0400)
TheLand | | Change Station

Elev 1001 ft 35.97 °N, 83.66 °W | Updated 1 minute ago

Mostly Cloudy
Mostly Cloudy
89.6 °F
Feels Like 95 °F
N
0.0
Wind Variable Wind from South
Gusts 2.0 mph

Today
High -- | Low -- °F
--% Chance of Precip.
Yesterday
High -- | Low -- °F
Precip. -- in
Pressure 29.98 in
Visibility 10.0 miles
Clouds Scattered Clouds 3000 ft
Mostly Cloudy 25000 ft
Heat Index 95 °F
Dew Point 71 °F
Humidity 53%
Rainfall 0.24 in
Snow Depth Not available.
6:41 AM 8:41 PM
Waning Crescent, 12% visible
METAR KTYS 301753Z 28009KT 250V310 10SM SCT030 BKN250 31/22 A3002 RMK AO2 SLP152 60000 T03060217 10306 20228 58009
Pressure 29.98 in
Visibility 10.0 miles
Clouds Scattered Clouds 3000 ft
Mostly Cloudy 25000 ft
Heat Index 95 °F
Dew Point 71 °F
Humidity 53%
Rainfall 0.24 in
Snow Depth Not available.
6:41 AM 8:41 PM
Waning Crescent, 12% visible
METAR KTYS 301753Z 28009KT 250V310 10SM SCT030 BKN250 31/22 A3002 RMK AO2 SLP152 60000 T03060217 10306 20228 58009

10-Day Weather Forecast

Almanac

Astronomy

Jul. 30, 2016 Rise Set
Actual Time
Civil Twilight
Nautical Twilight
Astronomical Twilight
Moon
Length of Visible Light
Length of Day
Tomorrow will be .
, % of the Moon is Illuminated

Today's Extremes

State Highs State Lows

Community

WunderPhotos

Upload Photos

1,928,600 photos uploaded!

WunderBlog® & News

Nearby

Air Quality

  Air Quality AQ Index Pollutant
Not available.

Snow Depth

Station Depth Elevation

Earthquake Activity

City Distance Mag. Time & Date
Minimum magnitude displayed is 2.5.

Coastal Water Temperatures

Place Temperature

Stations

Nearby Weather Stations

Station Location Temp. Windchill Dew Point Humidity Wind Precip. Elev Updated Type
                   

Watches & Warnings

There are currently no watches in effect.